sensor_id;sensor_type;location;lat;lon;timestamp;pressure;altitude;pressure_sealevel;temperature;humidity
70127;BME280;57491;42.694;23.314;2022-08-25T00:01:15;94980.34;;;21.96;70.14
70127;BME280;57491;42.694;23.314;2022-08-25T00:03:44;94982.53;;;22.04;69.91
70127;BME280;57491;42.694;23.314;2022-08-25T00:06:12;94968.41;;;21.93;69.99
70127;BME280;57491;42.694;23.314;2022-08-25T00:08:40;94964.56;;;22.06;69.77
70127;BME280;57491;42.694;23.314;2022-08-25T00:11:08;94979.22;;;22.18;69.50
70127;BME280;57491;42.694;23.314;2022-08-25T00:13:38;94976.06;;;22.21;69.76
70127;BME280;57491;42.694;23.314;2022-08-25T00:16:10;94952.88;;;22.02;69.33
70127;BME280;57491;42.694;23.314;2022-08-25T00:18:37;94980.03;;;22.19;69.71
70127;BME280;57491;42.694;23.314;2022-08-25T00:21:05;94955.78;;;22.00;69.65
70127;BME280;57491;42.694;23.314;2022-08-25T00:23:32;94968.81;;;22.12;69.76
70127;BME280;57491;42.694;23.314;2022-08-25T00:26:00;94975.16;;;22.06;69.80
70127;BME280;57491;42.694;23.314;2022-08-25T00:28:28;94946.63;;;21.86;70.05
70127;BME280;57491;42.694;23.314;2022-08-25T00:30:56;94950.88;;;21.87;70.25
70127;BME280;57491;42.694;23.314;2022-08-25T00:33:27;94959.91;;;21.91;70.61
70127;BME280;57491;42.694;23.314;2022-08-25T00:35:55;94959.69;;;21.93;70.24
70127;BME280;57491;42.694;23.314;2022-08-25T00:38:23;94962.63;;;21.96;70.40
70127;BME280;57491;42.694;23.314;2022-08-25T00:40:50;94961.81;;;21.96;70.38
70127;BME280;57491;42.694;23.314;2022-08-25T00:43:33;94971.16;;;22.03;70.42
70127;BME280;57491;42.694;23.314;2022-08-25T00:46:03;94932.00;;;21.78;70.51
70127;BME280;57491;42.694;23.314;2022-08-25T00:48:32;94979.34;;;22.02;70.49
70127;BME280;57491;42.694;23.314;2022-08-25T00:51:00;94971.41;;;22.02;70.58
70127;BME280;57491;42.694;23.314;2022-08-25T00:53:29;94975.59;;;21.98;70.51
70127;BME280;57491;42.694;23.314;2022-08-25T00:55:58;94967.03;;;21.91;70.56
70127;BME280;57491;42.694;23.314;2022-08-25T00:58:27;94978.28;;;22.03;70.56
70127;BME280;57491;42.694;23.314;2022-08-25T01:00:56;94971.94;;;22.04;70.74
70127;BME280;57491;42.694;23.314;2022-08-25T01:03:27;94976.19;;;22.05;70.74
70127;BME280;57491;42.694;23.314;2022-08-25T01:05:56;94958.19;;;22.02;69.86
70127;BME280;57491;42.694;23.314;2022-08-25T01:08:25;94956.56;;;22.01;70.22
70127;BME280;57491;42.694;23.314;2022-08-25T01:10:55;94947.47;;;21.92;70.17
70127;BME280;57491;42.694;23.314;2022-08-25T01:13:27;94950.91;;;21.92;70.51
70127;BME280;57491;42.694;23.314;2022-08-25T01:15:57;94951.75;;;21.93;70.45
70127;BME280;57491;42.694;23.314;2022-08-25T01:18:26;94953.56;;;21.92;70.32
70127;BME280;57491;42.694;23.314;2022-08-25T01:20:56;94940.00;;;21.84;70.50
70127;BME280;57491;42.694;23.314;2022-08-25T01:23:25;94954.84;;;21.90;70.74
70127;BME280;57491;42.694;23.314;2022-08-25T01:25:59;94946.91;;;21.90;70.47
70127;BME280;57491;42.694;23.314;2022-08-25T01:28:28;94946.56;;;21.81;70.60
70127;BME280;57491;42.694;23.314;2022-08-25T01:30:55;94953.97;;;21.79;70.79
70127;BME280;57491;42.694;23.314;2022-08-25T01:33:22;94945.44;;;21.72;70.85
70127;BME280;57491;42.694;23.314;2022-08-25T01:35:50;94952.63;;;21.76;70.85
70127;BME280;57491;42.694;23.314;2022-08-25T01:38:18;94958.16;;;21.75;70.85
70127;BME280;57491;42.694;23.314;2022-08-25T01:40:46;94946.56;;;21.81;70.68
70127;BME280;57491;42.694;23.314;2022-08-25T01:43:21;94951.06;;;21.80;70.51
70127;BME280;57491;42.694;23.314;2022-08-25T01:45:51;94938.75;;;21.64;70.58
70127;BME280;57491;42.694;23.314;2022-08-25T01:48:18;94946.53;;;21.76;70.31
70127;BME280;57491;42.694;23.314;2022-08-25T01:50:45;94954.16;;;21.72;70.31
70127;BME280;57491;42.694;23.314;2022-08-25T01:53:22;94954.16;;;21.72;70.17
70127;BME280;57491;42.694;23.314;2022-08-25T01:55:50;94963.44;;;21.75;70.27
70127;BME280;57491;42.694;23.314;2022-08-25T01:58:18;94959.47;;;21.72;69.71
70127;BME280;57491;42.694;23.314;2022-08-25T02:00:47;94930.13;;;21.47;70.05
70127;BME280;57491;42.694;23.314;2022-08-25T02:03:14;94952.84;;;21.70;70.35
70127;BME280;57491;42.694;23.314;2022-08-25T02:05:43;94949.72;;;21.78;69.90
70127;BME280;57491;42.694;23.314;2022-08-25T02:08:10;94942.88;;;21.82;69.65
70127;BME280;57491;42.694;23.314;2022-08-25T02:10:39;94937.31;;;21.78;69.18
70127;BME280;57491;42.694;23.314;2022-08-25T02:13:07;94931.41;;;21.71;69.35
70127;BME280;57491;42.694;23.314;2022-08-25T02:15:39;94944.97;;;21.80;69.30
70127;BME280;57491;42.694;23.314;2022-08-25T02:18:06;94936.97;;;21.75;69.28
70127;BME280;57491;42.694;23.314;2022-08-25T02:20:34;94938.34;;;21.77;69.28
70127;BME280;57491;42.694;23.314;2022-08-25T02:23:01;94935.41;;;21.74;69.20
70127;BME280;57491;42.694;23.314;2022-08-25T02:25:29;94913.25;;;21.53;69.26
70127;BME280;57491;42.694;23.314;2022-08-25T02:27:58;94919.88;;;21.56;69.65
70127;BME280;57491;42.694;23.314;2022-08-25T02:30:25;94938.66;;;21.54;69.86
70127;BME280;57491;42.694;23.314;2022-08-25T02:32:53;94935.72;;;21.51;70.19
70127;BME280;57491;42.694;23.314;2022-08-25T02:35:20;94940.44;;;21.49;70.21
70127;BME280;57491;42.694;23.314;2022-08-25T02:37:49;94936.47;;;21.46;70.50
70127;BME280;57491;42.694;23.314;2022-08-25T02:40:17;94935.94;;;21.49;70.25
70127;BME280;57491;42.694;23.314;2022-08-25T02:42:46;94931.69;;;21.48;70.06
70127;BME280;57491;42.694;23.314;2022-08-25T02:45:14;94939.69;;;21.53;70.27
70127;BME280;57491;42.694;23.314;2022-08-25T02:47:42;94932.81;;;21.52;70.11
70127;BME280;57491;42.694;23.314;2022-08-25T02:50:10;94938.59;;;21.49;70.19
70127;BME280;57491;42.694;23.314;2022-08-25T02:52:37;94930.88;;;21.43;70.48
70127;BME280;57491;42.694;23.314;2022-08-25T02:55:05;94938.47;;;21.34;70.64
70127;BME280;57491;42.694;23.314;2022-08-25T02:57:33;94941.28;;;21.27;71.02
70127;BME280;57491;42.694;23.314;2022-08-25T03:00:01;94946.00;;;21.25;71.48
70127;BME280;57491;42.694;23.314;2022-08-25T03:02:30;94945.25;;;21.25;71.31
70127;BME280;57491;42.694;23.314;2022-08-25T03:04:58;94947.53;;;21.16;71.72
70127;BME280;57491;42.694;23.314;2022-08-25T03:07:25;94959.56;;;21.29;71.39
70127;BME280;57491;42.694;23.314;2022-08-25T03:09:52;94951.34;;;21.30;71.08
70127;BME280;57491;42.694;23.314;2022-08-25T03:12:20;94946.06;;;21.30;70.94
70127;BME280;57491;42.694;23.314;2022-08-25T03:14:47;94944.09;;;21.43;70.86
70127;BME280;57491;42.694;23.314;2022-08-25T03:17:14;94949.19;;;21.49;70.46
70127;BME280;57491;42.694;23.314;2022-08-25T03:19:43;94938.31;;;21.46;70.47
70127;BME280;57491;42.694;23.314;2022-08-25T03:22:11;94949.19;;;21.49;70.61
70127;BME280;57491;42.694;23.314;2022-08-25T03:24:38;94912.44;;;21.26;70.13
70127;BME280;57491;42.694;23.314;2022-08-25T03:27:05;94952.28;;;21.41;70.51
70127;BME280;57491;42.694;23.314;2022-08-25T03:29:32;94943.28;;;21.42;70.33
70127;BME280;57491;42.694;23.314;2022-08-25T03:32:00;94947.78;;;21.42;70.33
70127;BME280;57491;42.694;23.314;2022-08-25T03:34:28;94950.97;;;21.44;70.35
70127;BME280;57491;42.694;23.314;2022-08-25T03:36:58;94945.38;;;21.40;70.22
70127;BME280;57491;42.694;23.314;2022-08-25T03:39:26;94942.63;;;21.30;70.32
70127;BME280;57491;42.694;23.314;2022-08-25T03:41:53;94961.31;;;21.45;70.32
70127;BME280;57491;42.694;23.314;2022-08-25T03:44:21;94961.88;;;21.47;70.29
70127;BME280;57491;42.694;23.314;2022-08-25T03:46:49;94953.38;;;21.45;70.34
70127;BME280;57491;42.694;23.314;2022-08-25T03:49:18;94948.59;;;21.42;70.49
70127;BME280;57491;42.694;23.314;2022-08-25T03:51:49;94938.00;;;21.42;70.53
70127;BME280;57491;42.694;23.314;2022-08-25T03:54:20;94940.66;;;21.42;70.57
70127;BME280;57491;42.694;23.314;2022-08-25T03:56:47;94952.56;;;21.45;70.37
70127;BME280;57491;42.694;23.314;2022-08-25T03:59:15;94947.56;;;21.48;70.71
70127;BME280;57491;42.694;23.314;2022-08-25T04:01:44;94930.06;;;21.42;70.28
70127;BME280;57491;42.694;23.314;2022-08-25T04:04:13;94935.41;;;21.47;70.44
70127;BME280;57491;42.694;23.314;2022-08-25T04:06:42;94928.22;;;21.43;70.05
70127;BME280;57491;42.694;23.314;2022-08-25T04:09:10;94941.06;;;21.56;69.98
70127;BME280;57491;42.694;23.314;2022-08-25T04:11:39;94939.75;;;21.58;69.56
70127;BME280;57491;42.694;23.314;2022-08-25T04:14:07;94941.50;;;21.48;69.74
70127;BME280;57491;42.694;23.314;2022-08-25T04:16:34;94926.88;;;21.40;69.56
70127;BME280;57491;42.694;23.314;2022-08-25T04:19:04;94942.91;;;21.55;69.83
70127;BME280;57491;42.694;23.314;2022-08-25T04:21:32;94945.31;;;21.57;69.60
70127;BME280;57491;42.694;23.314;2022-08-25T04:23:59;94948.28;;;21.65;69.48
70127;BME280;57491;42.694;23.314;2022-08-25T04:26:28;94932.72;;;21.69;68.79
70127;BME280;57491;42.694;23.314;2022-08-25T04:28:58;94919.44;;;21.64;69.02
70127;BME280;57491;42.694;23.314;2022-08-25T04:31:29;94907.25;;;21.63;68.76
70127;BME280;57491;42.694;23.314;2022-08-25T04:33:57;94924.06;;;21.78;68.67
70127;BME280;57491;42.694;23.314;2022-08-25T04:36:24;94932.06;;;21.84;68.37
70127;BME280;57491;42.694;23.314;2022-08-25T04:38:51;94933.66;;;21.90;68.22
70127;BME280;57491;42.694;23.314;2022-08-25T04:41:20;94940.88;;;21.94;68.24
70127;BME280;57491;42.694;23.314;2022-08-25T04:43:50;94942.28;;;22.02;68.18
70127;BME280;57491;42.694;23.314;2022-08-25T04:46:25;94955.88;;;22.10;67.55
70127;BME280;57491;42.694;23.314;2022-08-25T04:48:55;94873.13;;;21.61;67.07
70127;BME280;57491;42.694;23.314;2022-08-25T04:51:30;94938.13;;;22.16;66.86
70127;BME280;57491;42.694;23.314;2022-08-25T04:53:59;94947.00;;;22.32;66.69
70127;BME280;57491;42.694;23.314;2022-08-25T04:56:27;94957.91;;;22.40;66.18
70127;BME280;57491;42.694;23.314;2022-08-25T04:58:55;94956.44;;;22.54;66.10
70127;BME280;57491;42.694;23.314;2022-08-25T05:01:24;94950.88;;;22.61;65.59
70127;BME280;57491;42.694;23.314;2022-08-25T05:03:58;94952.34;;;22.74;64.71
70127;BME280;57491;42.694;23.314;2022-08-25T05:06:35;94939.59;;;22.76;64.58
70127;BME280;57491;42.694;23.314;2022-08-25T05:09:03;94948.47;;;22.96;64.26
70127;BME280;57491;42.694;23.314;2022-08-25T05:11:30;94955.13;;;23.04;63.36
70127;BME280;57491;42.694;23.314;2022-08-25T05:13:59;94943.66;;;22.93;63.94
70127;BME280;57491;42.694;23.314;2022-08-25T05:16:28;94942.06;;;22.92;63.72
70127;BME280;57491;42.694;23.314;2022-08-25T05:18:55;94945.81;;;23.01;63.58
70127;BME280;57491;42.694;23.314;2022-08-25T05:21:24;94942.13;;;23.02;63.47
70127;BME280;57491;42.694;23.314;2022-08-25T05:23:54;94936.31;;;23.05;63.49
70127;BME280;57491;42.694;23.314;2022-08-25T05:26:23;94940.28;;;23.08;63.00
70127;BME280;57491;42.694;23.314;2022-08-25T05:28:53;94935.75;;;23.03;63.35
70127;BME280;57491;42.694;23.314;2022-08-25T05:31:22;94930.22;;;23.05;63.59
70127;BME280;57491;42.694;23.314;2022-08-25T05:33:51;94905.22;;;22.91;63.64
70127;BME280;57491;42.694;23.314;2022-08-25T05:36:19;94937.38;;;23.14;63.23
70127;BME280;57491;42.694;23.314;2022-08-25T05:38:47;94936.63;;;23.24;62.93
70127;BME280;57491;42.694;23.314;2022-08-25T05:41:17;94941.41;;;23.27;62.59
70127;BME280;57491;42.694;23.314;2022-08-25T05:43:47;94942.72;;;23.25;62.93
70127;BME280;57491;42.694;23.314;2022-08-25T05:46:17;94939.81;;;23.26;62.77
70127;BME280;57491;42.694;23.314;2022-08-25T05:48:45;94945.19;;;23.41;62.50
70127;BME280;57491;42.694;23.314;2022-08-25T05:51:17;94921.31;;;23.41;62.13
70127;BME280;57491;42.694;23.314;2022-08-25T05:53:48;94940.72;;;23.57;61.97
70127;BME280;57491;42.694;23.314;2022-08-25T05:56:17;94941.00;;;23.66;62.05
70127;BME280;57491;42.694;23.314;2022-08-25T05:58:44;94943.13;;;23.74;61.78
70127;BME280;57491;42.694;23.314;2022-08-25T06:01:17;94948.19;;;23.80;61.74
70127;BME280;57491;42.694;23.314;2022-08-25T06:04:02;94934.63;;;23.87;61.81
70127;BME280;57491;42.694;23.314;2022-08-25T06:06:31;94944.22;;;23.93;61.03
70127;BME280;57491;42.694;23.314;2022-08-25T06:08:58;94942.91;;;23.90;61.37
70127;BME280;57491;42.694;23.314;2022-08-25T06:11:25;94943.94;;;23.79;61.43
70127;BME280;57491;42.694;23.314;2022-08-25T06:13:53;94866.63;;;23.40;61.83
70127;BME280;57491;42.694;23.314;2022-08-25T06:16:22;94947.41;;;24.05;61.53
70127;BME280;57491;42.694;23.314;2022-08-25T06:18:49;94951.94;;;24.20;61.02
70127;BME280;57491;42.694;23.314;2022-08-25T06:21:16;94903.03;;;24.00;60.67
70127;BME280;57491;42.694;23.314;2022-08-25T06:23:45;94942.66;;;24.17;60.83
70127;BME280;57491;42.694;23.314;2022-08-25T06:26:13;94943.72;;;24.21;60.57
70127;BME280;57491;42.694;23.314;2022-08-25T06:28:41;94934.16;;;24.35;60.67
70127;BME280;57491;42.694;23.314;2022-08-25T06:31:08;94931.50;;;24.30;61.11
70127;BME280;57491;42.694;23.314;2022-08-25T06:33:35;94925.63;;;24.28;60.22
70127;BME280;57491;42.694;23.314;2022-08-25T06:36:03;94946.59;;;24.60;60.09
70127;BME280;57491;42.694;23.314;2022-08-25T06:38:31;94945.22;;;24.73;59.46
70127;BME280;57491;42.694;23.314;2022-08-25T06:41:02;94941.81;;;24.57;60.23
70127;BME280;57491;42.694;23.314;2022-08-25T06:43:29;94944.72;;;24.61;59.80
70127;BME280;57491;42.694;23.314;2022-08-25T06:45:58;94945.72;;;24.85;59.53
70127;BME280;57491;42.694;23.314;2022-08-25T06:48:25;94939.75;;;25.23;58.24
70127;BME280;57491;42.694;23.314;2022-08-25T06:50:52;94945.69;;;25.64;56.77
70127;BME280;57491;42.694;23.314;2022-08-25T06:53:19;94931.00;;;25.67;56.89
70127;BME280;57491;42.694;23.314;2022-08-25T06:55:55;94927.25;;;25.73;56.96
70127;BME280;57491;42.694;23.314;2022-08-25T06:58:23;94938.31;;;25.90;56.97
70127;BME280;57491;42.694;23.314;2022-08-25T07:00:51;94937.22;;;26.30;55.48
70127;BME280;57491;42.694;23.314;2022-08-25T07:03:19;94939.84;;;26.64;53.96
70127;BME280;57491;42.694;23.314;2022-08-25T07:05:50;94927.78;;;26.43;53.74
70127;BME280;57491;42.694;23.314;2022-08-25T07:08:17;94934.66;;;26.49;53.71
70127;BME280;57491;42.694;23.314;2022-08-25T07:10:44;94944.78;;;26.52;53.91
70127;BME280;57491;42.694;23.314;2022-08-25T07:13:12;94932.59;;;26.41;54.23
70127;BME280;57491;42.694;23.314;2022-08-25T07:15:41;94929.31;;;26.49;53.92
70127;BME280;57491;42.694;23.314;2022-08-25T07:18:10;94920.50;;;26.77;53.55
70127;BME280;57491;42.694;23.314;2022-08-25T07:20:39;94928.75;;;27.04;52.49
70127;BME280;57491;42.694;23.314;2022-08-25T07:23:06;94940.13;;;27.15;52.46
70127;BME280;57491;42.694;23.314;2022-08-25T07:25:34;94930.69;;;27.41;51.65
70127;BME280;57491;42.694;23.314;2022-08-25T07:28:02;94918.69;;;27.39;50.74
70127;BME280;57491;42.694;23.314;2022-08-25T07:30:30;94932.56;;;27.65;50.06
70127;BME280;57491;42.694;23.314;2022-08-25T07:32:58;94926.69;;;27.81;49.48
70127;BME280;57491;42.694;23.314;2022-08-25T07:35:25;94927.16;;;27.83;49.62
70127;BME280;57491;42.694;23.314;2022-08-25T07:37:54;94929.84;;;27.83;49.23
70127;BME280;57491;42.694;23.314;2022-08-25T07:40:24;94932.22;;;27.85;49.95
70127;BME280;57491;42.694;23.314;2022-08-25T07:42:53;94932.25;;;27.66;49.51
70127;BME280;57491;42.694;23.314;2022-08-25T07:45:22;94925.16;;;27.75;49.87
70127;BME280;57491;42.694;23.314;2022-08-25T07:47:55;94936.72;;;27.89;49.62
70127;BME280;57491;42.694;23.314;2022-08-25T07:50:25;94940.19;;;27.90;48.86
70127;BME280;57491;42.694;23.314;2022-08-25T07:52:52;94937.44;;;27.76;49.16
70127;BME280;57491;42.694;23.314;2022-08-25T07:55:19;94943.00;;;27.80;49.04
70127;BME280;57491;42.694;23.314;2022-08-25T07:57:47;94933.50;;;27.74;48.56
70127;BME280;57491;42.694;23.314;2022-08-25T08:00:15;94897.03;;;27.64;48.61
70127;BME280;57491;42.694;23.314;2022-08-25T08:02:43;94936.50;;;28.05;48.34
70127;BME280;57491;42.694;23.314;2022-08-25T08:05:11;94933.38;;;28.49;48.07
70127;BME280;57491;42.694;23.314;2022-08-25T08:07:40;94927.31;;;29.03;46.43
70127;BME280;57491;42.694;23.314;2022-08-25T08:10:10;94933.63;;;29.48;44.84
70127;BME280;57491;42.694;23.314;2022-08-25T08:12:38;94911.66;;;29.59;43.89
70127;BME280;57491;42.694;23.314;2022-08-25T08:15:05;94926.88;;;29.86;43.82
70127;BME280;57491;42.694;23.314;2022-08-25T08:17:32;94921.00;;;30.20;43.51
70127;BME280;57491;42.694;23.314;2022-08-25T08:20:00;94911.00;;;30.56;42.53
70127;BME280;57491;42.694;23.314;2022-08-25T08:22:29;94914.59;;;30.83;40.91
70127;BME280;57491;42.694;23.314;2022-08-25T08:24:59;94896.25;;;30.23;42.36
70127;BME280;57491;42.694;23.314;2022-08-25T08:27:27;94903.00;;;30.43;41.99
70127;BME280;57491;42.694;23.314;2022-08-25T08:29:54;94894.53;;;30.49;42.51
70127;BME280;57491;42.694;23.314;2022-08-25T08:32:21;94905.69;;;30.65;42.47
70127;BME280;57491;42.694;23.314;2022-08-25T08:34:48;94899.03;;;30.63;41.83
70127;BME280;57491;42.694;23.314;2022-08-25T08:37:15;94900.97;;;30.71;42.43
70127;BME280;57491;42.694;23.314;2022-08-25T08:39:43;94906.31;;;31.02;42.02
70127;BME280;57491;42.694;23.314;2022-08-25T08:42:38;94899.13;;;31.28;41.47
70127;BME280;57491;42.694;23.314;2022-08-25T08:45:31;94898.34;;;31.44;40.10
70127;BME280;57491;42.694;23.314;2022-08-25T08:48:17;94899.78;;;31.51;39.99
70127;BME280;57491;42.694;23.314;2022-08-25T08:50:54;94898.31;;;31.27;40.62
70127;BME280;57491;42.694;23.314;2022-08-25T08:53:30;94881.75;;;30.86;41.77
70127;BME280;57491;42.694;23.314;2022-08-25T08:56:01;94896.16;;;30.59;41.72
70127;BME280;57491;42.694;23.314;2022-08-25T08:58:41;94893.78;;;30.35;42.35
70127;BME280;57491;42.694;23.314;2022-08-25T09:01:12;94882.78;;;30.14;42.70
70127;BME280;57491;42.694;23.314;2022-08-25T09:03:43;94889.56;;;30.34;42.71
70127;BME280;57491;42.694;23.314;2022-08-25T09:06:21;94895.41;;;30.67;42.48
70127;BME280;57491;42.694;23.314;2022-08-25T09:08:56;94896.94;;;30.99;41.79
70127;BME280;57491;42.694;23.314;2022-08-25T09:11:32;94890.69;;;31.04;41.18
70127;BME280;57491;42.694;23.314;2022-08-25T09:14:17;94886.03;;;30.47;41.32
70127;BME280;57491;42.694;23.314;2022-08-25T09:16:52;94889.06;;;30.32;41.02
70127;BME280;57491;42.694;23.314;2022-08-25T09:19:38;94893.44;;;30.28;41.30
70127;BME280;57491;42.694;23.314;2022-08-25T09:22:17;94894.22;;;29.98;41.89
70127;BME280;57491;42.694;23.314;2022-08-25T09:24:58;94887.38;;;29.92;41.85
70127;BME280;57491;42.694;23.314;2022-08-25T09:27:35;94877.22;;;30.33;39.17
70127;BME280;57491;42.694;23.314;2022-08-25T09:30:09;94878.72;;;30.70;37.37
70127;BME280;57491;42.694;23.314;2022-08-25T09:32:40;94881.22;;;31.06;37.91
70127;BME280;57491;42.694;23.314;2022-08-25T09:35:13;94883.31;;;31.43;36.85
70127;BME280;57491;42.694;23.314;2022-08-25T09:37:54;94885.13;;;31.91;34.03
70127;BME280;57491;42.694;23.314;2022-08-25T09:40:22;94882.25;;;32.30;33.32
70127;BME280;57491;42.694;23.314;2022-08-25T09:42:51;94876.00;;;32.47;32.56
70127;BME280;57491;42.694;23.314;2022-08-25T09:45:33;94869.88;;;32.29;32.28
70127;BME280;57491;42.694;23.314;2022-08-25T09:48:01;94857.91;;;32.01;32.69
70127;BME280;57491;42.694;23.314;2022-08-25T09:50:30;94869.94;;;31.95;33.49
70127;BME280;57491;42.694;23.314;2022-08-25T09:53:11;94869.94;;;31.78;33.22
70127;BME280;57491;42.694;23.314;2022-08-25T09:55:42;94871.47;;;31.27;33.34
70127;BME280;57491;42.694;23.314;2022-08-25T09:58:17;94867.94;;;30.62;34.32
70127;BME280;57491;42.694;23.314;2022-08-25T10:01:00;94878.69;;;30.39;36.00
70127;BME280;57491;42.694;23.314;2022-08-25T10:03:29;94874.50;;;30.47;36.32
70127;BME280;57491;42.694;23.314;2022-08-25T10:06:05;94857.34;;;30.56;36.08
70127;BME280;57491;42.694;23.314;2022-08-25T10:08:36;94866.22;;;30.66;36.07
70127;BME280;57491;42.694;23.314;2022-08-25T10:11:05;94875.72;;;30.80;34.61
70127;BME280;57491;42.694;23.314;2022-08-25T10:13:40;94874.09;;;31.02;34.67
70127;BME280;57491;42.694;23.314;2022-08-25T10:16:19;94855.69;;;31.52;34.00
70127;BME280;57491;42.694;23.314;2022-08-25T10:19:00;94871.53;;;31.96;32.83
70127;BME280;57491;42.694;23.314;2022-08-25T10:21:28;94878.72;;;32.39;32.16
70127;BME280;57491;42.694;23.314;2022-08-25T10:23:55;94869.97;;;32.67;31.46
70127;BME280;57491;42.694;23.314;2022-08-25T10:26:31;94860.84;;;32.89;30.40
70127;BME280;57491;42.694;23.314;2022-08-25T10:29:09;94869.84;;;33.31;30.72
70127;BME280;57491;42.694;23.314;2022-08-25T10:31:47;94863.84;;;33.26;30.12
70127;BME280;57491;42.694;23.314;2022-08-25T10:34:33;94846.25;;;33.49;29.74
70127;BME280;57491;42.694;23.314;2022-08-25T10:37:11;94852.22;;;34.17;28.38
70127;BME280;57491;42.694;23.314;2022-08-25T10:39:43;94855.44;;;34.55;27.62
70127;BME280;57491;42.694;23.314;2022-08-25T10:42:27;94856.94;;;34.77;26.57
70127;BME280;57491;42.694;23.314;2022-08-25T10:45:15;94851.00;;;34.83;26.92
70127;BME280;57491;42.694;23.314;2022-08-25T10:48:33;94851.09;;;35.23;27.21
70127;BME280;57491;42.694;23.314;2022-08-25T10:51:12;94842.00;;;35.16;26.71
70127;BME280;57491;42.694;23.314;2022-08-25T10:53:50;94848.38;;;35.48;26.04
70127;BME280;57491;42.694;23.314;2022-08-25T10:56:25;94846.84;;;35.62;26.21
70127;BME280;57491;42.694;23.314;2022-08-25T10:59:01;94846.41;;;36.28;24.96
70127;BME280;57491;42.694;23.314;2022-08-25T11:01:43;94835.34;;;36.49;25.01
70127;BME280;57491;42.694;23.314;2022-08-25T11:04:21;94840.88;;;36.68;25.54
70127;BME280;57491;42.694;23.314;2022-08-25T11:06:55;94833.34;;;36.93;24.54
70127;BME280;57491;42.694;23.314;2022-08-25T11:09:28;94839.72;;;37.16;24.49
70127;BME280;57491;42.694;23.314;2022-08-25T11:11:59;94825.84;;;36.86;24.32
70127;BME280;57491;42.694;23.314;2022-08-25T11:14:30;94822.38;;;37.36;23.77
70127;BME280;57491;42.694;23.314;2022-08-25T11:17:03;94829.78;;;37.39;23.54
70127;BME280;57491;42.694;23.314;2022-08-25T11:19:38;94820.59;;;37.44;23.82
70127;BME280;57491;42.694;23.314;2022-08-25T11:22:12;94825.31;;;36.96;24.44
70127;BME280;57491;42.694;23.314;2022-08-25T11:24:46;94823.75;;;36.80;23.73
70127;BME280;57491;42.694;23.314;2022-08-25T11:27:20;94814.63;;;36.41;24.52
70127;BME280;57491;42.694;23.314;2022-08-25T11:29:57;94807.03;;;36.46;24.38
70127;BME280;57491;42.694;23.314;2022-08-25T11:32:26;94804.50;;;36.85;24.20
70127;BME280;57491;42.694;23.314;2022-08-25T11:35:10;94804.66;;;37.23;24.22
70127;BME280;57491;42.694;23.314;2022-08-25T11:37:44;94800.94;;;36.81;24.74
70127;BME280;57491;42.694;23.314;2022-08-25T11:40:19;94799.72;;;36.47;23.79
70127;BME280;57491;42.694;23.314;2022-08-25T11:43:00;94796.63;;;36.17;24.92
70127;BME280;57491;42.694;23.314;2022-08-25T11:45:44;94791.50;;;35.32;25.60
70127;BME280;57491;42.694;23.314;2022-08-25T11:48:21;94791.44;;;34.92;26.17
70127;BME280;57491;42.694;23.314;2022-08-25T11:50:59;94746.94;;;35.14;25.88
70127;BME280;57491;42.694;23.314;2022-08-25T11:53:29;94788.28;;;36.10;25.23
70127;BME280;57491;42.694;23.314;2022-08-25T11:55:58;94787.09;;;36.39;24.50
70127;BME280;57491;42.694;23.314;2022-08-25T11:58:41;94784.66;;;36.18;24.56
70127;BME280;57491;42.694;23.314;2022-08-25T12:04:29;94767.72;;;37.53;23.12
70127;BME280;57491;42.694;23.314;2022-08-25T12:07:26;94776.69;;;38.15;22.26
70127;BME280;57491;42.694;23.314;2022-08-25T12:10:14;94750.88;;;38.48;21.85
70127;BME280;57491;42.694;23.314;2022-08-25T12:13:01;94773.16;;;38.57;22.49
70127;BME280;57491;42.694;23.314;2022-08-25T12:15:33;94775.38;;;38.51;22.36
70127;BME280;57491;42.694;23.314;2022-08-25T12:18:10;94766.78;;;38.04;22.70
70127;BME280;57491;42.694;23.314;2022-08-25T12:21:12;94783.22;;;37.02;23.64
70127;BME280;57491;42.694;23.314;2022-08-25T12:23:41;94782.06;;;36.37;24.40
70127;BME280;57491;42.694;23.314;2022-08-25T12:26:17;94781.88;;;36.61;24.23
70127;BME280;57491;42.694;23.314;2022-08-25T12:28:58;94775.53;;;37.04;23.61
70127;BME280;57491;42.694;23.314;2022-08-25T12:31:53;94770.56;;;37.06;23.76
70127;BME280;57491;42.694;23.314;2022-08-25T12:34:38;94777.88;;;36.55;24.10
70127;BME280;57491;42.694;23.314;2022-08-25T12:37:12;94772.25;;;35.73;25.24
70127;BME280;57491;42.694;23.314;2022-08-25T12:39:51;94770.47;;;35.25;25.81
70127;BME280;57491;42.694;23.314;2022-08-25T12:42:22;94769.94;;;34.96;25.91
70127;BME280;57491;42.694;23.314;2022-08-25T12:45:10;94777.19;;;34.67;26.43
70127;BME280;57491;42.694;23.314;2022-08-25T12:47:39;94755.66;;;34.34;27.45
70127;BME280;57491;42.694;23.314;2022-08-25T12:50:37;94765.25;;;34.11;27.66
70127;BME280;57491;42.694;23.314;2022-08-25T12:53:11;94775.50;;;33.52;27.19
70127;BME280;57491;42.694;23.314;2022-08-25T12:55:46;94758.50;;;32.89;28.02
70127;BME280;57491;42.694;23.314;2022-08-25T12:58:15;94763.41;;;32.58;28.60
70127;BME280;57491;42.694;23.314;2022-08-25T13:01:00;94773.69;;;32.56;28.50
70127;BME280;57491;42.694;23.314;2022-08-25T13:06:36;94762.16;;;32.64;29.34
70127;BME280;57491;42.694;23.314;2022-08-25T13:12:09;94779.41;;;32.16;29.70
70127;BME280;57491;42.694;23.314;2022-08-25T13:14:42;94787.03;;;32.14;29.66
70127;BME280;57491;42.694;23.314;2022-08-25T13:17:11;94780.06;;;32.13;30.52
70127;BME280;57491;42.694;23.314;2022-08-25T13:19:50;94769.91;;;32.27;29.81
70127;BME280;57491;42.694;23.314;2022-08-25T13:22:17;94755.03;;;32.21;28.98